createdAt,value
2017-09-18T00:01:20.607Z,10.07
2017-09-18T00:03:48.062Z,9.00
2017-09-18T00:06:15.521Z,9.30
2017-09-18T00:08:43.388Z,9.40
2017-09-18T00:11:10.800Z,9.37
2017-09-18T00:13:38.221Z,9.20
2017-09-18T00:16:05.649Z,9.63
2017-09-18T00:18:33.121Z,9.53
2017-09-18T00:21:00.537Z,10.03
2017-09-18T00:23:28.708Z,9.07
2017-09-18T00:25:56.911Z,8.57
2017-09-18T00:28:24.324Z,8.50
2017-09-18T00:30:52.126Z,8.80
2017-09-18T00:33:19.534Z,8.67
2017-09-18T00:35:47.771Z,7.70
2017-09-18T00:38:15.219Z,8.03
2017-09-18T00:40:42.637Z,6.83
2017-09-18T00:43:10.846Z,7.90
2017-09-18T00:45:38.260Z,8.27
2017-09-18T00:48:05.667Z,8.10
2017-09-18T00:50:33.089Z,8.13
2017-09-18T00:53:01.272Z,7.87
2017-09-18T00:55:29.440Z,7.80
2017-09-18T00:57:57.326Z,8.27
2017-09-18T01:00:24.738Z,7.73
2017-09-18T01:02:52.924Z,7.40
2017-09-18T01:05:21.136Z,7.27
2017-09-18T01:07:48.546Z,7.47
2017-09-18T01:10:16.729Z,6.90
2017-09-18T01:12:44.903Z,6.63
2017-09-18T01:15:13.125Z,6.23
2017-09-18T01:17:40.571Z,5.87
2017-09-18T01:20:08.024Z,6.20
2017-09-18T01:22:35.438Z,6.30
2017-09-18T01:25:03.608Z,6.20
2017-09-18T01:27:31.358Z,6.47
2017-09-18T01:29:59.171Z,6.47
2017-09-18T01:32:27.039Z,6.50
2017-09-18T01:34:54.446Z,6.40
2017-09-18T01:37:21.850Z,6.20
2017-09-18T01:39:49.260Z,6.93
2017-09-18T01:42:16.667Z,5.70
2017-09-18T01:44:44.071Z,6.50
2017-09-18T01:47:11.579Z,5.87
2017-09-18T01:49:38.994Z,6.10
2017-09-18T01:52:06.486Z,5.73
2017-09-18T01:54:33.891Z,5.60
2017-09-18T01:57:01.307Z,5.73
2017-09-18T01:59:28.715Z,5.23
2017-09-18T02:01:56.219Z,5.50
2017-09-18T02:04:23.670Z,5.53
2017-09-18T02:06:51.080Z,5.70
2017-09-18T02:09:19.299Z,7.20
2017-09-18T02:11:46.959Z,6.23
2017-09-18T02:14:14.423Z,5.23
2017-09-18T02:16:41.834Z,6.03
2017-09-18T02:19:10.051Z,5.93
2017-09-18T02:21:37.496Z,5.17
2017-09-18T02:24:04.903Z,5.20
2017-09-18T02:26:32.311Z,4.80
2017-09-18T02:28:59.725Z,5.63
2017-09-18T02:31:27.243Z,5.70
2017-09-18T02:33:54.650Z,5.40
2017-09-18T02:36:22.819Z,5.60
2017-09-18T02:38:51.147Z,5.83
2017-09-18T02:41:18.590Z,5.50
2017-09-18T02:43:46.003Z,6.47
2017-09-18T02:46:13.509Z,5.63
2017-09-18T02:48:40.968Z,5.80
2017-09-18T02:51:08.427Z,5.80
2017-09-18T02:53:35.824Z,6.07
2017-09-18T02:56:03.218Z,5.30
2017-09-18T02:58:30.631Z,5.33
2017-09-18T03:00:58.038Z,6.57
2017-09-18T03:03:25.453Z,5.53
2017-09-18T03:05:52.859Z,6.10
2017-09-18T03:08:20.274Z,5.67
2017-09-18T03:10:48.446Z,5.70
2017-09-18T03:13:16.627Z,5.97
2017-09-18T03:15:44.832Z,5.33
2017-09-18T03:18:12.286Z,5.80
2017-09-18T03:20:39.701Z,6.43
2017-09-18T03:23:07.875Z,6.40
2017-09-18T03:25:36.091Z,5.90
2017-09-18T03:28:04.059Z,5.67
2017-09-18T03:30:31.831Z,6.67
2017-09-18T03:32:59.243Z,6.30
2017-09-18T03:35:27.430Z,5.60
2017-09-18T03:37:54.835Z,6.57
2017-09-18T03:40:22.831Z,6.30
2017-09-18T03:42:51.003Z,6.50
2017-09-18T03:45:19.190Z,6.20
2017-09-18T03:47:47.606Z,5.73
2017-09-18T03:50:15.022Z,5.90
2017-09-18T03:52:43.200Z,5.80
2017-09-18T03:55:11.376Z,6.47
2017-09-18T03:57:41.019Z,7.13
2017-09-18T04:00:08.419Z,6.17
2017-09-18T04:02:36.619Z,8.23
2017-09-18T04:05:04.094Z,6.20
2017-09-18T04:07:31.557Z,5.70
2017-09-18T04:09:58.979Z,6.60
2017-09-18T04:12:27.161Z,5.40
2017-09-18T04:14:55.331Z,5.90
2017-09-18T04:17:23.503Z,5.67
2017-09-18T04:19:51.706Z,6.07
2017-09-18T04:22:19.107Z,5.80
2017-09-18T04:24:47.874Z,5.50
2017-09-18T04:27:15.282Z,6.30
2017-09-18T04:29:42.700Z,5.73
2017-09-18T04:32:10.112Z,5.63
2017-09-18T04:34:37.578Z,6.00
2017-09-18T04:37:05.002Z,5.97
2017-09-18T04:39:33.209Z,5.80
2017-09-18T04:42:00.603Z,5.23
2017-09-18T04:44:28.020Z,6.00
2017-09-18T04:46:55.428Z,6.20
2017-09-18T04:49:23.603Z,5.33
2017-09-18T04:51:51.775Z,5.80
2017-09-18T04:54:19.947Z,6.23
2017-09-18T04:56:48.135Z,6.27
2017-09-18T04:59:16.307Z,6.67
2017-09-18T05:01:44.488Z,6.33
2017-09-18T05:04:12.694Z,6.57
2017-09-18T05:06:40.134Z,6.13
2017-09-18T05:09:07.995Z,6.97
2017-09-18T05:11:35.668Z,6.57
2017-09-18T05:14:03.130Z,6.13
2017-09-18T05:16:30.535Z,9.40
2017-09-18T05:18:58.710Z,6.87
2017-09-18T05:21:26.891Z,7.80
2017-09-18T05:23:55.087Z,7.30
2017-09-18T05:26:22.502Z,7.53
2017-09-18T05:28:50.022Z,6.60
2017-09-18T05:31:17.503Z,6.87
2017-09-18T05:33:44.899Z,6.97
2017-09-18T05:36:13.100Z,7.63
2017-09-18T05:38:40.506Z,7.00
2017-09-18T05:41:08.310Z,6.63
2017-09-18T05:43:35.728Z,7.00
2017-09-18T05:46:03.235Z,7.27
2017-09-18T05:48:31.747Z,7.20
2017-09-18T05:50:59.159Z,7.33
2017-09-18T05:53:26.623Z,6.90
2017-09-18T05:55:54.587Z,7.70
2017-09-18T05:58:21.999Z,9.30
2017-09-18T06:00:49.414Z,8.17
2017-09-18T06:03:16.836Z,8.00
2017-09-18T06:05:44.430Z,7.77
2017-09-18T06:08:11.875Z,7.50
2017-09-18T06:10:39.335Z,8.40
2017-09-18T06:13:06.746Z,7.90
2017-09-18T06:15:34.242Z,8.23
2017-09-18T06:18:01.698Z,8.03
2017-09-18T06:20:29.132Z,7.83
2017-09-18T06:22:57.335Z,7.77
2017-09-18T06:25:24.750Z,9.90
2017-09-18T06:27:52.152Z,9.43
2017-09-18T06:30:19.600Z,8.50
2017-09-18T06:32:47.027Z,8.50
2017-09-18T06:35:15.213Z,8.67
2017-09-18T06:37:42.639Z,8.47
2017-09-18T06:40:10.049Z,7.83
2017-09-18T06:42:37.499Z,7.90
2017-09-18T06:45:04.927Z,8.47
2017-09-18T06:47:33.108Z,8.43
2017-09-18T06:50:00.587Z,8.47
2017-09-18T06:52:28.004Z,9.07
2017-09-18T06:54:56.223Z,8.50
2017-09-18T06:57:23.653Z,9.00
2017-09-18T06:59:51.842Z,8.90
2017-09-18T07:02:19.259Z,8.53
2017-09-18T07:04:47.480Z,8.87
2017-09-18T07:07:14.903Z,9.17
2017-09-18T07:09:42.316Z,8.87
2017-09-18T07:12:09.732Z,8.87
2017-09-18T07:14:37.339Z,8.53
2017-09-18T07:17:04.875Z,7.80
2017-09-18T07:19:32.286Z,8.43
2017-09-18T07:22:00.503Z,9.33
2017-09-18T07:24:27.953Z,8.03
2017-09-18T07:26:55.363Z,8.03
2017-09-18T07:29:22.871Z,8.40
2017-09-18T07:31:50.329Z,8.60
2017-09-18T07:34:17.723Z,8.40
2017-09-18T07:36:45.139Z,8.40
2017-09-18T07:39:12.600Z,9.50
2017-09-18T07:41:40.056Z,9.70
2017-09-18T07:44:07.507Z,8.70
2017-09-18T07:46:34.965Z,8.57
2017-09-18T07:49:02.371Z,8.70
2017-09-18T07:51:31.084Z,8.50
2017-09-18T07:53:58.501Z,8.37
2017-09-18T07:56:27.428Z,10.40
2017-09-18T07:58:54.910Z,11.90
2017-09-18T08:01:22.354Z,9.17
2017-09-18T08:03:49.771Z,9.20
2017-09-18T08:06:17.987Z,8.10
2017-09-18T08:08:45.403Z,9.33
2017-09-18T08:11:13.601Z,10.97
2017-09-18T08:13:41.598Z,9.50
2017-09-18T08:16:09.031Z,8.40
2017-09-18T08:18:37.222Z,8.47
2017-09-18T08:21:04.620Z,7.90
2017-09-18T08:23:32.047Z,8.17
2017-09-18T08:25:59.467Z,7.67
2017-09-18T08:28:26.934Z,8.37
2017-09-18T08:30:54.342Z,8.40
2017-09-18T08:33:21.856Z,7.13
2017-09-18T08:35:49.314Z,7.20
2017-09-18T08:38:16.702Z,7.60
2017-09-18T08:40:44.735Z,6.70
2017-09-18T08:43:12.146Z,6.80
2017-09-18T08:45:40.346Z,7.57
2017-09-18T08:48:07.817Z,6.30
2017-09-18T08:50:35.234Z,6.73
2017-09-18T08:53:03.421Z,6.90
2017-09-18T08:55:30.840Z,7.23
2017-09-18T08:57:58.267Z,6.80
2017-09-18T09:00:25.675Z,8.07
2017-09-18T09:02:53.854Z,7.70
2017-09-18T09:05:22.104Z,7.70
2017-09-18T09:07:49.520Z,9.53
2017-09-18T09:10:16.989Z,9.83
2017-09-18T09:12:44.429Z,10.57
2017-09-18T09:15:12.606Z,10.70
2017-09-18T09:17:40.067Z,10.97
2017-09-18T09:20:07.479Z,10.70
2017-09-18T09:22:35.659Z,11.10
2017-09-18T09:25:03.862Z,11.30
2017-09-18T09:27:31.279Z,11.43
2017-09-18T09:29:59.810Z,12.33
2017-09-18T09:32:27.219Z,12.80
2017-09-18T09:34:55.434Z,12.27
2017-09-18T09:37:22.847Z,12.30
2017-09-18T09:39:51.075Z,13.60
2017-09-18T09:42:18.487Z,14.43
2017-09-18T09:44:46.671Z,13.50
2017-09-18T09:47:14.849Z,14.70
2017-09-18T09:49:42.267Z,13.70
2017-09-18T09:52:10.401Z,13.83
2017-09-18T09:54:37.857Z,14.50
2017-09-18T09:57:05.312Z,14.37
2017-09-18T09:59:32.717Z,16.30
2017-09-18T10:02:00.336Z,16.13
2017-09-18T10:04:27.730Z,15.80
2017-09-18T10:06:56.689Z,15.80
2017-09-18T10:09:24.100Z,16.23
2017-09-18T10:11:52.287Z,17.03
2017-09-18T10:14:19.763Z,16.60
2017-09-18T10:16:47.189Z,14.67
2017-09-18T10:19:15.355Z,15.20
2017-09-18T10:21:43.578Z,13.57
2017-09-18T10:24:10.987Z,14.03
2017-09-18T10:26:39.178Z,13.67
2017-09-18T10:29:06.597Z,13.60
2017-09-18T10:31:34.008Z,13.17
2017-09-18T10:34:01.446Z,13.33
2017-09-18T10:36:29.642Z,12.10
2017-09-18T10:38:57.505Z,12.33
2017-09-18T10:41:24.918Z,12.97
2017-09-18T10:43:52.936Z,13.40
2017-09-18T10:46:20.352Z,15.40
2017-09-18T10:48:48.530Z,13.43
2017-09-18T10:51:16.726Z,14.40
2017-09-18T10:53:44.927Z,14.27
2017-09-18T10:56:12.412Z,14.40
2017-09-18T10:58:39.821Z,12.90
2017-09-18T11:01:07.509Z,12.53
2017-09-18T11:03:34.985Z,13.07
2017-09-18T11:06:02.401Z,12.77
2017-09-18T11:08:29.801Z,15.50
2017-09-18T11:10:57.431Z,15.13
2017-09-18T11:13:24.867Z,13.80
2017-09-18T11:15:52.326Z,14.27
2017-09-18T11:18:20.691Z,14.40
2017-09-18T11:20:48.110Z,14.27
2017-09-18T11:23:15.614Z,12.83
2017-09-18T11:25:43.069Z,13.33
2017-09-18T11:28:11.253Z,13.00
2017-09-18T11:30:38.672Z,10.53
2017-09-18T11:33:06.156Z,10.40
2017-09-18T11:35:33.621Z,10.70
2017-09-18T11:38:01.034Z,11.67
2017-09-18T11:40:29.219Z,10.30
2017-09-18T11:42:56.647Z,11.43
2017-09-18T11:45:24.067Z,10.60
2017-09-18T11:47:52.042Z,9.77
2017-09-18T11:50:19.467Z,11.00
2017-09-18T11:52:47.483Z,10.30
2017-09-18T11:55:15.522Z,8.47
2017-09-18T11:57:43.287Z,8.00
2017-09-18T12:00:10.688Z,7.80
2017-09-18T12:02:38.104Z,8.30
2017-09-18T12:05:05.548Z,7.97
2017-09-18T12:07:32.977Z,7.60
2017-09-18T12:10:00.463Z,7.53
2017-09-18T12:12:27.880Z,7.30
2017-09-18T12:14:56.088Z,8.43
2017-09-18T12:17:23.511Z,10.20
2017-09-18T12:19:51.691Z,8.50
2017-09-18T12:22:19.899Z,9.30
2017-09-18T12:24:47.319Z,8.27
2017-09-18T12:27:15.514Z,8.50
2017-09-18T12:29:42.927Z,8.30
2017-09-18T12:32:10.335Z,8.10
2017-09-18T12:34:37.790Z,8.50
2017-09-18T12:37:05.214Z,8.27
2017-09-18T12:39:33.387Z,9.30
2017-09-18T12:42:02.107Z,8.93
2017-09-18T12:44:29.519Z,8.37
2017-09-18T12:46:57.691Z,8.40
2017-09-18T12:49:25.951Z,8.50
2017-09-18T12:51:53.361Z,7.73
2017-09-18T12:54:20.790Z,7.83
2017-09-18T12:56:48.970Z,8.27
2017-09-18T12:59:17.173Z,8.83
2017-09-18T13:01:44.579Z,9.27
2017-09-18T13:04:12.829Z,9.50
2017-09-18T13:06:40.247Z,8.67
2017-09-18T13:09:07.738Z,9.87
2017-09-18T13:11:35.178Z,10.07
2017-09-18T13:14:02.588Z,11.43
2017-09-18T13:16:30.799Z,10.50
2017-09-18T13:18:58.968Z,12.30
2017-09-18T13:21:26.387Z,13.70
2017-09-18T13:23:54.599Z,12.90
2017-09-18T13:26:22.033Z,10.90
2017-09-18T13:28:50.212Z,12.20
2017-09-18T13:31:17.635Z,10.70
2017-09-18T13:33:45.059Z,10.80
2017-09-18T13:36:12.482Z,10.83
2017-09-18T13:41:10.348Z,10.10
2017-09-18T13:43:38.544Z,11.67
2017-09-18T13:46:06.228Z,10.10
2017-09-18T13:48:33.917Z,11.37
2017-09-18T13:51:01.361Z,11.70
2017-09-18T13:53:28.788Z,13.50
2017-09-18T13:55:56.244Z,12.90
2017-09-18T13:58:23.716Z,13.07
2017-09-18T14:00:51.147Z,14.67
2017-09-18T14:03:18.564Z,12.97
2017-09-18T14:05:46.002Z,12.40
2017-09-18T14:08:13.468Z,13.00
2017-09-18T14:10:40.884Z,12.87
2017-09-18T14:13:09.100Z,12.70
2017-09-18T14:15:37.321Z,8.00
2017-09-18T14:18:04.763Z,5.13
2017-09-18T14:20:32.570Z,5.80
2017-09-18T14:22:59.975Z,4.10
2017-09-18T14:25:46.244Z,5.03
2017-09-18T14:28:13.657Z,4.97
2017-09-18T14:30:41.712Z,5.40
2017-09-18T14:33:09.161Z,5.87
2017-09-18T14:35:36.571Z,3.80
2017-09-18T14:38:04.076Z,3.40
2017-09-18T14:40:33.278Z,3.43
2017-09-18T14:43:00.760Z,3.20
2017-09-18T14:45:28.968Z,4.87
2017-09-18T14:47:56.378Z,4.67
2017-09-18T14:50:23.837Z,4.93
2017-09-18T14:52:51.289Z,4.90
2017-09-18T14:55:20.224Z,4.87
2017-09-18T14:57:48.070Z,4.20
2017-09-18T15:00:15.542Z,4.37
2017-09-18T15:02:43.012Z,5.20
2017-09-18T15:05:10.454Z,4.80
2017-09-18T15:07:37.935Z,6.13
2017-09-18T15:10:05.516Z,5.80
2017-09-18T15:12:34.491Z,5.30
2017-09-18T15:15:02.347Z,5.37
2017-09-18T15:17:30.567Z,5.40
2017-09-18T15:19:57.979Z,4.83
2017-09-18T15:22:25.389Z,5.60
2017-09-18T15:24:52.836Z,7.60
2017-09-18T15:27:20.246Z,7.73
2017-09-18T15:29:47.755Z,9.30
2017-09-18T15:32:15.163Z,8.20
2017-09-18T15:34:43.343Z,7.60
2017-09-18T15:37:11.519Z,7.50
2017-09-18T15:39:39.699Z,7.20
2017-09-18T15:42:07.193Z,5.97
2017-09-18T15:44:34.593Z,7.30
2017-09-18T15:47:02.087Z,6.77
2017-09-18T15:49:29.503Z,8.00
2017-09-18T15:51:56.912Z,8.37
2017-09-18T15:54:24.461Z,8.67
2017-09-18T15:56:52.650Z,8.03
2017-09-18T15:59:20.163Z,8.43
2017-09-18T16:01:47.582Z,11.23
2017-09-18T16:04:15.227Z,7.80
2017-09-18T16:06:42.706Z,7.03
2017-09-18T16:09:10.186Z,6.17
2017-09-18T16:11:37.635Z,5.87
2017-09-18T16:14:05.056Z,5.63
2017-09-18T16:16:32.567Z,5.50
2017-09-18T16:18:59.968Z,7.10
2017-09-18T16:21:27.470Z,7.17
2017-09-18T16:23:54.924Z,7.90
2017-09-18T16:26:22.396Z,7.30
2017-09-18T16:28:49.959Z,8.30
2017-09-18T16:31:18.174Z,7.10
2017-09-18T16:33:45.685Z,7.37
2017-09-18T16:36:13.260Z,7.30
2017-09-18T16:38:41.448Z,7.40
2017-09-18T16:41:08.896Z,7.90
2017-09-18T16:43:36.688Z,6.53
2017-09-18T16:46:04.163Z,8.50
2017-09-18T16:48:31.656Z,7.43
2017-09-18T16:50:59.864Z,6.93
2017-09-18T16:53:27.323Z,5.17
2017-09-18T16:55:54.747Z,5.47
2017-09-18T16:58:22.166Z,5.80
2017-09-18T17:00:49.579Z,6.70
2017-09-18T17:03:17.003Z,6.80
2017-09-18T17:05:45.177Z,6.90
2017-09-18T17:08:13.355Z,6.00
2017-09-18T17:10:41.560Z,6.83
2017-09-18T17:13:09.003Z,5.60
2017-09-18T17:15:37.803Z,6.40
2017-09-18T17:18:05.246Z,7.00
2017-09-18T17:20:32.941Z,7.05
2017-09-18T17:23:00.369Z,8.10
2017-09-18T17:25:27.782Z,8.70
2017-09-18T17:27:55.193Z,6.23
2017-09-18T17:30:22.605Z,8.30
2017-09-18T17:32:50.835Z,8.30
2017-09-18T17:35:18.263Z,8.33
2017-09-18T17:37:45.703Z,7.70
2017-09-18T17:40:13.180Z,9.40
2017-09-18T17:42:40.665Z,8.30
2017-09-18T17:45:08.120Z,8.43
2017-09-18T17:47:35.538Z,6.60
2017-09-18T17:50:03.754Z,7.80
2017-09-18T17:52:31.162Z,8.50
2017-09-18T17:54:59.473Z,8.50
2017-09-18T17:57:26.864Z,7.23
2017-09-18T17:59:54.380Z,7.53
2017-09-18T18:02:21.847Z,7.67
2017-09-18T18:04:49.260Z,6.63
2017-09-18T18:07:17.440Z,6.23
2017-09-18T18:09:45.134Z,6.10
2017-09-18T18:12:12.538Z,6.70
2017-09-18T18:14:39.963Z,6.57
2017-09-18T18:17:07.375Z,6.40
2017-09-18T18:19:34.798Z,6.73
2017-09-18T18:22:02.226Z,7.03
2017-09-18T18:24:29.639Z,6.50
2017-09-18T18:26:57.058Z,6.40
2017-09-18T18:29:25.984Z,6.30
2017-09-18T18:31:54.235Z,7.17
2017-09-18T18:34:21.753Z,6.70
2017-09-18T18:36:49.295Z,6.90
2017-09-18T18:39:17.505Z,7.57
2017-09-18T18:41:44.939Z,7.10
2017-09-18T18:44:12.348Z,6.87
2017-09-18T18:46:40.562Z,6.77
2017-09-18T18:49:08.036Z,7.30
2017-09-18T18:51:35.473Z,7.03
2017-09-18T18:54:02.989Z,7.80
2017-09-18T18:56:30.543Z,7.80
2017-09-18T18:58:57.968Z,7.60
2017-09-18T19:01:25.474Z,7.47
2017-09-18T19:03:52.893Z,6.73
2017-09-18T19:06:20.321Z,6.90
2017-09-18T19:08:47.805Z,6.27
2017-09-18T19:11:15.272Z,6.93
2017-09-18T19:13:42.711Z,6.80
2017-09-18T19:16:10.203Z,6.10
2017-09-18T19:18:37.630Z,6.63
2017-09-18T19:21:05.084Z,7.07
2017-09-18T19:23:32.475Z,6.17
2017-09-18T19:26:00.688Z,6.10
2017-09-18T19:28:28.136Z,6.53
2017-09-18T19:30:55.578Z,5.53
2017-09-18T19:33:23.030Z,6.43
2017-09-18T19:35:51.233Z,6.43
2017-09-18T19:38:18.674Z,6.80
2017-09-18T19:40:46.169Z,6.90
2017-09-18T19:43:14.360Z,6.47
2017-09-18T19:45:41.776Z,6.90
2017-09-18T19:48:09.220Z,6.60
2017-09-18T19:50:36.675Z,6.77
2017-09-18T19:53:04.167Z,7.07
2017-09-18T19:55:31.613Z,7.53
2017-09-18T19:57:59.123Z,8.40
2017-09-18T20:00:28.091Z,6.60
2017-09-18T20:02:55.539Z,7.20
2017-09-18T20:05:23.007Z,6.50
2017-09-18T20:07:50.421Z,6.43
2017-09-18T20:10:17.926Z,5.93
2017-09-18T20:12:45.336Z,6.00
2017-09-18T20:15:12.783Z,6.60
2017-09-18T20:17:40.257Z,6.23
2017-09-18T20:20:07.705Z,6.33
2017-09-18T20:22:35.171Z,6.80
2017-09-18T20:25:02.653Z,6.60
2017-09-18T20:27:30.061Z,5.90
2017-09-18T20:29:58.409Z,6.13
2017-09-18T20:32:25.907Z,6.63
2017-09-18T20:34:53.410Z,6.30
2017-09-18T20:37:20.874Z,6.60
2017-09-18T20:39:48.286Z,7.80
2017-09-18T20:42:16.254Z,8.20
2017-09-18T20:44:43.771Z,7.87
2017-09-18T20:47:11.988Z,7.53
2017-09-18T20:49:39.402Z,8.30
2017-09-18T20:52:07.603Z,9.13
2017-09-18T20:54:35.060Z,8.17
2017-09-18T20:57:02.463Z,7.30
2017-09-18T20:59:30.861Z,7.80
2017-09-18T21:01:58.287Z,8.10
2017-09-18T21:04:25.712Z,8.03
2017-09-18T21:06:53.127Z,7.77
2017-09-18T21:09:21.307Z,8.30
2017-09-18T21:11:49.488Z,8.20
2017-09-18T21:14:17.583Z,8.07
2017-09-18T21:16:44.990Z,8.23
2017-09-18T21:19:13.247Z,8.07
2017-09-18T21:21:40.670Z,7.57
2017-09-18T21:24:08.088Z,7.90
2017-09-18T21:26:36.273Z,8.37
2017-09-18T21:29:03.691Z,7.53
2017-09-18T21:31:32.615Z,7.90
2017-09-18T21:34:00.817Z,7.20
2017-09-18T21:36:28.233Z,7.73
2017-09-18T21:38:56.410Z,7.20
2017-09-18T21:41:24.591Z,7.90
2017-09-18T21:43:52.799Z,8.67
2017-09-18T21:46:20.250Z,7.40
2017-09-18T21:48:47.668Z,7.80
2017-09-18T21:51:15.846Z,8.03
2017-09-18T21:53:44.031Z,8.10
2017-09-18T21:56:11.451Z,7.60
2017-09-18T21:58:39.630Z,8.40
2017-09-18T22:01:07.811Z,9.27
2017-09-18T22:03:35.991Z,10.33
2017-09-18T22:06:04.202Z,14.20
2017-09-18T22:08:31.620Z,10.70
2017-09-18T22:10:59.803Z,10.80
2017-09-18T22:13:27.567Z,10.63
2017-09-18T22:15:55.755Z,10.30
2017-09-18T22:18:23.167Z,9.57
2017-09-18T22:20:55.922Z,9.97
2017-09-18T22:23:23.371Z,10.17
2017-09-18T22:25:50.791Z,10.13
2017-09-18T22:28:18.203Z,10.27
2017-09-18T22:30:45.635Z,10.60
2017-09-18T22:33:13.057Z,10.20
2017-09-18T22:35:40.470Z,10.93
2017-09-18T22:38:08.663Z,11.80
2017-09-18T22:40:36.174Z,10.93
2017-09-18T22:43:03.591Z,10.73
2017-09-18T22:45:31.779Z,10.60
2017-09-18T22:47:59.195Z,11.40
2017-09-18T22:50:26.631Z,10.87
2017-09-18T22:52:54.034Z,12.03
2017-09-18T22:55:22.222Z,11.57
2017-09-18T22:57:49.647Z,11.87
2017-09-18T23:00:17.199Z,14.30
2017-09-18T23:02:44.715Z,13.20
2017-09-18T23:05:12.136Z,12.00
2017-09-18T23:07:40.328Z,11.70
2017-09-18T23:10:07.739Z,11.90
2017-09-18T23:12:35.175Z,12.07
2017-09-18T23:15:02.591Z,11.80
2017-09-18T23:17:30.011Z,10.93
2017-09-18T23:19:58.199Z,10.87
2017-09-18T23:22:26.379Z,11.50
2017-09-18T23:24:54.611Z,11.70
2017-09-18T23:27:22.027Z,11.23
2017-09-18T23:29:49.447Z,10.40
2017-09-18T23:32:17.634Z,11.50
2017-09-18T23:34:45.810Z,10.53
2017-09-18T23:37:14.018Z,10.00
2017-09-18T23:39:41.435Z,12.10
2017-09-18T23:42:09.631Z,11.23
2017-09-18T23:44:37.047Z,10.40
2017-09-18T23:47:05.287Z,11.00
2017-09-18T23:49:32.694Z,10.90
2017-09-18T23:52:00.886Z,11.17
2017-09-18T23:54:28.312Z,11.60
2017-09-18T23:56:55.732Z,11.57
2017-09-18T23:59:23.152Z,11.90
